Time;durP1;ratioP1;P1;durP2;ratioP2;P2;SDS_P1;SDS_P2;PMS_P1;PMS_P2;Temp;Humidity;BMP_temperature;BMP_pressure;BME280_temperature;BME280_humidity;BME280_pressure;Samples;Min_cycle;Max_cycle;Signal;HPM_P1;HPM_P2
2022/05/14 00:00:37;;;;;;;20.40;15.70;;;;;;;;;;5096768;28;20862;-71
2022/05/14 00:03:05;;;;;;;19.93;16.43;;;;;;;;;;5096859;28;20447;-71
2022/05/14 00:05:32;;;;;;;19.53;15.97;;;;;;;;;;5096788;28;20447;-71
2022/05/14 00:07:59;;;;;;;23.40;16.97;;;;;;;;;;5096695;28;20927;-71
2022/05/14 00:10:29;;;;;;;29.00;17.03;;;;;;;;;;5096649;28;20474;-71
2022/05/14 00:13:04;;;;;;;22.97;16.17;;;;;;;;;;5096631;28;20451;-72
2022/05/14 00:15:31;;;;;;;20.70;15.00;;;;;;;;;;5096505;28;20477;-71
2022/05/14 00:17:58;;;;;;;21.90;15.20;;;;;;;;;;5096628;28;20431;-71
2022/05/14 00:20:26;;;;;;;22.87;16.97;;;;;;;;;;5096117;28;20477;-71
2022/05/14 00:22:53;;;;;;;20.67;16.83;;;;;;;;;;5096331;28;20454;-72
2022/05/14 00:25:20;;;;;;;22.50;17.17;;;;;;;;;;5096179;28;20432;-72
2022/05/14 00:27:49;;;;;;;25.30;18.13;;;;;;;;;;5096365;28;20450;-71
2022/05/14 00:30:17;;;;;;;23.67;18.30;;;;;;;;;;5096215;28;20967;-71
2022/05/14 00:32:44;;;;;;;25.77;20.90;;;;;;;;;;5096241;28;20450;-71
2022/05/14 00:35:12;;;;;;;36.80;11.63;;;;;;;;;;5095794;28;20474;-71
2022/05/14 00:37:39;;;;;;;20.90;10.27;;;;;;;;;;5096155;28;20450;-71
2022/05/14 00:40:08;;;;;;;12.67;10.57;;;;;;;;;;5095791;28;20471;-71
2022/05/14 00:42:35;;;;;;;14.50;11.13;;;;;;;;;;5096328;28;20454;-71
2022/05/14 00:45:05;;;;;;;11.77;10.53;;;;;;;;;;5096058;28;20457;-72
2022/05/14 00:47:35;;;;;;;14.53;11.57;;;;;;;;;;5095623;28;20458;-71
2022/05/14 00:50:04;;;;;;;14.50;11.47;;;;;;;;;;5095908;28;20485;-72
2022/05/14 00:52:31;;;;;;;17.00;12.60;;;;;;;;;;5095589;28;20459;-71
2022/05/14 00:55:01;;;;;;;16.80;12.10;;;;;;;;;;5095749;28;20943;-71
2022/05/14 00:57:30;;;;;;;14.63;10.90;;;;;;;;;;5096045;28;20534;-71
2022/05/14 00:59:59;;;;;;;18.37;11.83;;;;;;;;;;5095633;28;20811;-71
2022/05/14 01:02:28;;;;;;;21.63;12.03;;;;;;;;;;5095715;28;20446;-71
2022/05/14 01:04:56;;;;;;;17.20;13.80;;;;;;;;;;5094683;28;20454;-71
2022/05/14 01:07:24;;;;;;;20.23;15.23;;;;;;;;;;5095549;28;20476;-71
2022/05/14 01:09:53;;;;;;;23.17;15.03;;;;;;;;;;5095481;28;20975;-71
2022/05/14 01:12:21;;;;;;;22.40;16.60;;;;;;;;;;5095199;28;20451;-71
2022/05/14 01:14:48;;;;;;;31.67;19.80;;;;;;;;;;5095450;28;20447;-71
2022/05/14 01:17:15;;;;;;;26.47;19.60;;;;;;;;;;5095325;28;20491;-71
2022/05/14 01:19:44;;;;;;;23.10;19.03;;;;;;;;;;5095000;28;20479;-71
2022/05/14 01:22:25;;;;;;;25.70;18.67;;;;;;;;;;5095323;28;20473;-71
2022/05/14 01:27:41;;;;;;;33.53;19.33;;;;;;;;;;5095316;28;20465;-71
2022/05/14 01:30:09;;;;;;;27.10;18.37;;;;;;;;;;5095043;28;20975;-71
2022/05/14 01:32:36;;;;;;;23.00;18.10;;;;;;;;;;5094779;28;20447;-71
2022/05/14 01:35:04;;;;;;;28.47;18.93;;;;;;;;;;5095005;28;20454;-71
2022/05/14 01:37:31;;;;;;;23.70;17.63;;;;;;;;;;5094704;28;20503;-71
2022/05/14 01:39:58;;;;;;;22.17;17.60;;;;;;;;;;5094905;28;20840;-71
2022/05/14 01:42:25;;;;;;;22.17;16.37;;;;;;;;;;5094958;28;20451;-71
2022/05/14 01:44:53;;;;;;;26.43;18.40;;;;;;;;;;5094888;28;20458;-71
2022/05/14 01:47:20;;;;;;;27.27;18.23;;;;;;;;;;5094808;28;20966;-71
2022/05/14 01:49:48;;;;;;;27.73;19.57;;;;;;;;;;5094724;28;20466;-71
2022/05/14 01:52:15;;;;;;;24.47;17.83;;;;;;;;;;5094683;28;20457;-71
2022/05/14 01:54:42;;;;;;;21.37;17.00;;;;;;;;;;5094961;28;20461;-71
2022/05/14 01:57:09;;;;;;;26.77;19.83;;;;;;;;;;5094580;28;20508;-71
2022/05/14 01:59:36;;;;;;;26.33;20.57;;;;;;;;;;5094482;28;20473;-71
2022/05/14 02:02:09;;;;;;;24.90;18.13;;;;;;;;;;5094584;28;20468;-71
2022/05/14 02:04:36;;;;;;;30.17;19.60;;;;;;;;;;5094490;28;20469;-71
2022/05/14 02:07:04;;;;;;;24.50;17.30;;;;;;;;;;5094438;28;20446;-71
2022/05/14 02:09:31;;;;;;;21.73;17.83;;;;;;;;;;5094057;28;20466;-71
2022/05/14 02:11:58;;;;;;;26.93;19.87;;;;;;;;;;5094359;28;20486;-71
2022/05/14 02:14:25;;;;;;;25.67;17.33;;;;;;;;;;5094498;28;20462;-71
2022/05/14 02:16:52;;;;;;;29.90;18.70;;;;;;;;;;5093867;28;20849;-72
2022/05/14 02:19:20;;;;;;;29.43;17.57;;;;;;;;;;5094183;28;20475;-71
2022/05/14 02:21:47;;;;;;;27.63;18.37;;;;;;;;;;5093881;28;20457;-71
2022/05/14 02:24:15;;;;;;;23.90;17.40;;;;;;;;;;5093828;28;20989;-71
2022/05/14 02:26:42;;;;;;;24.60;19.30;;;;;;;;;;5094062;28;20454;-71
2022/05/14 02:29:09;;;;;;;27.80;19.43;;;;;;;;;;5093976;28;20471;-71
2022/05/14 02:31:36;;;;;;;34.90;20.70;;;;;;;;;;5093958;28;20462;-71
2022/05/14 02:34:03;;;;;;;29.70;19.80;;;;;;;;;;5093675;28;20455;-71
2022/05/14 02:36:32;;;;;;;27.17;20.40;;;;;;;;;;5093613;28;20493;-71
2022/05/14 02:38:59;;;;;;;24.10;19.47;;;;;;;;;;5093790;28;20461;-71
2022/05/14 02:41:26;;;;;;;25.80;19.13;;;;;;;;;;5093881;28;20461;-71
2022/05/14 02:43:53;;;;;;;26.63;18.93;;;;;;;;;;5093850;28;20458;-71
2022/05/14 02:46:21;;;;;;;21.87;17.60;;;;;;;;;;5093983;28;20879;-71
2022/05/14 02:48:48;;;;;;;28.70;19.60;;;;;;;;;;5093766;28;20939;-71
2022/05/14 02:51:15;;;;;;;30.00;23.40;;;;;;;;;;5093703;28;20457;-71
2022/05/14 02:53:43;;;;;;;23.63;17.13;;;;;;;;;;5093465;28;20447;-71
2022/05/14 02:56:10;;;;;;;23.03;16.17;;;;;;;;;;5093579;28;20983;-71
2022/05/14 03:01:22;;;;;;;24.67;15.67;;;;;;;;;;5093512;28;20445;-71
2022/05/14 03:03:49;;;;;;;22.00;17.97;;;;;;;;;;5093262;28;20458;-71
2022/05/14 03:06:16;;;;;;;20.17;17.97;;;;;;;;;;5093200;28;20447;-71
2022/05/14 03:08:45;;;;;;;26.97;18.50;;;;;;;;;;5093223;28;20458;-71
2022/05/14 03:11:12;;;;;;;21.97;19.17;;;;;;;;;;5093422;28;20836;-71
2022/05/14 03:13:39;;;;;;;31.43;19.20;;;;;;;;;;5093487;28;20450;-71
2022/05/14 03:16:06;;;;;;;27.23;19.80;;;;;;;;;;5093363;28;21047;-71
2022/05/14 03:18:33;;;;;;;23.03;17.00;;;;;;;;;;5093412;28;20431;-71
2022/05/14 03:21:00;;;;;;;22.50;17.60;;;;;;;;;;5093359;28;20478;-71
2022/05/14 03:23:28;;;;;;;19.90;17.07;;;;;;;;;;5093188;28;20469;-71
2022/05/14 03:25:56;;;;;;;23.57;18.17;;;;;;;;;;5093329;28;20476;-71
2022/05/14 03:28:23;;;;;;;23.10;18.83;;;;;;;;;;5094633;28;20450;-71
2022/05/14 03:30:50;;;;;;;26.70;16.30;;;;;;;;;;5097354;28;20463;-71
2022/05/14 03:33:17;;;;;;;22.33;17.57;;;;;;;;;;5097429;28;20473;-71
2022/05/14 03:35:44;;;;;;;22.30;17.00;;;;;;;;;;5097305;28;20457;-71
2022/05/14 03:38:12;;;;;;;22.03;16.70;;;;;;;;;;5097400;28;20458;-71
2022/05/14 03:40:39;;;;;;;29.80;23.70;;;;;;;;;;5097216;28;20474;-71
2022/05/14 03:43:07;;;;;;;25.83;18.47;;;;;;;;;;5097273;28;20461;-71
2022/05/14 03:45:34;;;;;;;24.70;17.93;;;;;;;;;;5097201;28;20490;-71
2022/05/14 03:48:01;;;;;;;18.53;15.33;;;;;;;;;;5097159;28;20828;-72
2022/05/14 03:50:28;;;;;;;19.03;14.80;;;;;;;;;;5096989;28;20475;-72
2022/05/14 03:52:57;;;;;;;19.20;13.87;;;;;;;;;;5097003;28;20813;-72
2022/05/14 03:55:24;;;;;;;25.20;15.00;;;;;;;;;;5097048;28;20549;-71
2022/05/14 03:57:51;;;;;;;34.57;23.90;;;;;;;;;;5097007;28;20490;-71
2022/05/14 04:00:20;;;;;;;30.20;20.57;;;;;;;;;;5096832;28;20831;-71
2022/05/14 04:02:47;;;;;;;31.60;20.07;;;;;;;;;;5096870;28;20939;-71
2022/05/14 04:05:15;;;;;;;20.50;16.50;;;;;;;;;;5096881;28;20446;-71
2022/05/14 04:07:42;;;;;;;17.73;14.40;;;;;;;;;;5096779;28;20446;-71
2022/05/14 04:10:12;;;;;;;16.10;14.40;;;;;;;;;;5096707;28;20478;-71
2022/05/14 04:12:39;;;;;;;15.20;12.50;;;;;;;;;;5096313;28;20455;-71
2022/05/14 04:15:07;;;;;;;14.90;11.03;;;;;;;;;;5096639;28;20794;-71
2022/05/14 04:17:35;;;;;;;19.73;14.03;;;;;;;;;;5096213;28;20485;-71
2022/05/14 04:20:02;;;;;;;17.20;13.10;;;;;;;;;;5096468;28;20493;-71
2022/05/14 04:22:29;;;;;;;19.73;15.53;;;;;;;;;;5096514;28;20458;-71
2022/05/14 04:24:57;;;;;;;18.60;15.70;;;;;;;;;;5096105;28;20463;-71
2022/05/14 04:27:24;;;;;;;20.70;14.43;;;;;;;;;;5096376;28;20958;-71
2022/05/14 04:29:52;;;;;;;18.67;14.70;;;;;;;;;;5096296;28;20475;-71
2022/05/14 04:32:19;;;;;;;14.97;13.43;;;;;;;;;;5095749;28;20455;-71
2022/05/14 04:34:47;;;;;;;26.30;17.30;;;;;;;;;;5095882;28;20450;-71
2022/05/14 04:37:14;;;;;;;19.27;15.27;;;;;;;;;;5096129;28;20851;-71
2022/05/14 04:39:42;;;;;;;15.60;12.43;;;;;;;;;;5095876;28;20544;-71
2022/05/14 04:42:10;;;;;;;13.63;11.93;;;;;;;;;;5095923;28;20451;-71
2022/05/14 04:44:38;;;;;;;13.53;12.13;;;;;;;;;;5096295;28;20451;-71
2022/05/14 04:47:06;;;;;;;12.67;11.17;;;;;;;;;;5095965;28;20450;-71
2022/05/14 04:49:33;;;;;;;18.00;12.13;;;;;;;;;;5095625;28;20478;-71
2022/05/14 04:52:01;;;;;;;11.40;10.20;;;;;;;;;;5095921;28;20932;-71
2022/05/14 04:54:28;;;;;;;10.90;9.57;;;;;;;;;;5096137;28;20430;-72
2022/05/14 04:56:56;;;;;;;13.90;9.47;;;;;;;;;;5095794;28;20493;-72
2022/05/14 04:59:23;;;;;;;15.97;10.50;;;;;;;;;;5095751;28;20474;-72
2022/05/14 05:04:32;;;;;;;10.50;9.50;;;;;;;;;;5095059;28;20435;-71
2022/05/14 05:06:59;;;;;;;11.10;9.60;;;;;;;;;;5095007;28;20443;-72
2022/05/14 05:09:27;;;;;;;17.83;11.40;;;;;;;;;;5095163;28;20473;-72
2022/05/14 05:11:54;;;;;;;10.87;9.80;;;;;;;;;;5095837;28;20454;-71
2022/05/14 05:14:21;;;;;;;13.03;10.27;;;;;;;;;;5095142;28;20449;-72
2022/05/14 05:16:50;;;;;;;17.70;10.30;;;;;;;;;;5095119;28;20483;-71
2022/05/14 05:19:17;;;;;;;19.53;13.97;;;;;;;;;;5095368;28;20474;-72
2022/05/14 05:21:45;;;;;;;14.00;10.97;;;;;;;;;;5094743;28;20458;-71
2022/05/14 05:24:12;;;;;;;13.03;9.33;;;;;;;;;;5093442;28;20467;-71
2022/05/14 05:26:41;;;;;;;16.67;10.40;;;;;;;;;;5093939;28;20454;-71
2022/05/14 05:29:08;;;;;;;11.80;8.73;;;;;;;;;;5093994;28;20454;-71
2022/05/14 05:31:39;;;;;;;10.27;9.30;;;;;;;;;;5093540;28;20458;-71
2022/05/14 05:34:06;;;;;;;16.90;9.47;;;;;;;;;;5093508;28;20443;-71
2022/05/14 05:36:33;;;;;;;12.20;8.20;;;;;;;;;;5093912;28;20971;-72
2022/05/14 05:39:00;;;;;;;9.40;7.80;;;;;;;;;;5093689;28;20435;-71
2022/05/14 05:41:28;;;;;;;8.50;6.93;;;;;;;;;;5093319;28;20454;-72
2022/05/14 05:43:57;;;;;;;9.63;7.47;;;;;;;;;;5093543;28;20451;-72
2022/05/14 05:46:24;;;;;;;12.30;7.13;;;;;;;;;;5093155;28;20459;-72
2022/05/14 05:48:51;;;;;;;8.67;7.63;;;;;;;;;;5093291;28;20451;-72
2022/05/14 05:51:18;;;;;;;9.23;6.47;;;;;;;;;;5092935;28;20446;-72
2022/05/14 05:56:51;;;;;;;6.83;6.10;;;;;;;;;;5093744;28;20773;-72
2022/05/14 05:59:21;;;;;;;8.57;6.07;;;;;;;;;;5092962;28;20506;-72
2022/05/14 06:01:48;;;;;;;6.10;5.10;;;;;;;;;;5093388;28;20474;-72
2022/05/14 06:04:15;;;;;;;6.83;5.27;;;;;;;;;;5093215;28;20451;-72
2022/05/14 06:06:42;;;;;;;5.97;4.93;;;;;;;;;;5093001;28;20459;-72
2022/05/14 06:09:10;;;;;;;7.27;6.50;;;;;;;;;;5093033;28;20480;-72
2022/05/14 06:11:37;;;;;;;5.90;5.27;;;;;;;;;;5093117;28;20462;-72
2022/05/14 06:14:04;;;;;;;5.90;5.30;;;;;;;;;;5093252;28;20451;-72
2022/05/14 06:16:32;;;;;;;5.83;5.00;;;;;;;;;;5093225;28;20458;-72
2022/05/14 06:18:59;;;;;;;7.83;5.40;;;;;;;;;;5092959;28;20431;-73
2022/05/14 06:21:28;;;;;;;6.77;5.23;;;;;;;;;;5092928;28;20462;-72
2022/05/14 06:23:55;;;;;;;5.73;5.10;;;;;;;;;;5092841;28;20470;-72
2022/05/14 06:26:22;;;;;;;4.97;4.57;;;;;;;;;;5092811;28;20928;-72
2022/05/14 06:28:49;;;;;;;5.63;4.83;;;;;;;;;;5092798;28;20496;-72
2022/05/14 06:31:17;;;;;;;6.10;5.50;;;;;;;;;;5092782;28;20458;-72
2022/05/14 06:33:46;;;;;;;5.60;5.10;;;;;;;;;;5092204;28;20512;-71
2022/05/14 06:36:13;;;;;;;6.13;5.63;;;;;;;;;;5092793;28;20457;-72
2022/05/14 06:38:41;;;;;;;10.60;6.10;;;;;;;;;;5092574;28;20998;-72
2022/05/14 06:41:08;;;;;;;9.27;5.10;;;;;;;;;;5092576;28;20805;-72
2022/05/14 06:43:35;;;;;;;5.93;4.10;;;;;;;;;;5092605;28;20458;-72
2022/05/14 06:46:02;;;;;;;9.23;4.03;;;;;;;;;;5092502;28;21082;-72
2022/05/14 06:48:29;;;;;;;4.47;3.80;;;;;;;;;;5092655;28;20455;-72
2022/05/14 06:51:00;;;;;;;5.10;2.67;;;;;;;;;;5092380;28;20466;-72
2022/05/14 06:53:29;;;;;;;4.27;3.33;;;;;;;;;;5092531;28;20512;-72
2022/05/14 06:55:57;;;;;;;7.17;3.53;;;;;;;;;;5092494;28;20953;-72
2022/05/14 06:58:26;;;;;;;6.80;3.83;;;;;;;;;;5092690;28;20513;-72
2022/05/14 07:00:53;;;;;;;6.10;3.60;;;;;;;;;;5092540;28;20471;-72
2022/05/14 07:08:54;;;;;;;6.87;4.07;;;;;;;;;;5087830;28;20446;-72
2022/05/14 07:11:21;;;;;;;3.87;2.90;;;;;;;;;;5093254;28;20465;-72
2022/05/14 07:13:48;;;;;;;4.40;3.37;;;;;;;;;;5093198;28;20507;-72
2022/05/14 07:16:16;;;;;;;4.13;2.93;;;;;;;;;;5093510;28;20442;-73
2022/05/14 07:18:43;;;;;;;5.73;3.17;;;;;;;;;;5093666;28;20834;-73
2022/05/14 07:21:11;;;;;;;7.00;3.50;;;;;;;;;;5093538;28;20479;-73
2022/05/14 07:23:38;;;;;;;9.33;3.00;;;;;;;;;;5093247;28;20474;-72
2022/05/14 07:26:07;;;;;;;3.97;2.77;;;;;;;;;;5093472;28;20450;-72
2022/05/14 07:28:34;;;;;;;4.30;2.67;;;;;;;;;;5093329;28;20459;-72
2022/05/14 07:31:02;;;;;;;6.10;3.70;;;;;;;;;;5093286;28;20541;-72
2022/05/14 07:33:29;;;;;;;5.47;2.83;;;;;;;;;;5093406;28;20454;-73
2022/05/14 07:35:57;;;;;;;3.93;2.70;;;;;;;;;;5093284;28;20800;-73
2022/05/14 07:38:25;;;;;;;3.80;3.13;;;;;;;;;;5093235;28;20482;-73
2022/05/14 07:40:53;;;;;;;4.40;2.20;;;;;;;;;;5092933;28;20558;-73
2022/05/14 07:43:22;;;;;;;3.10;2.30;;;;;;;;;;5093333;28;20446;-73
2022/05/14 07:45:51;;;;;;;3.30;2.33;;;;;;;;;;5093230;28;20455;-73
2022/05/14 07:48:20;;;;;;;2.97;1.80;;;;;;;;;;5093143;28;20451;-73
2022/05/14 07:50:48;;;;;;;5.43;1.70;;;;;;;;;;5093136;28;20466;-73
2022/05/14 07:53:15;;;;;;;3.63;2.13;;;;;;;;;;5093170;28;20813;-73
2022/05/14 07:55:44;;;;;;;4.03;1.73;;;;;;;;;;5093095;28;20457;-73
2022/05/14 07:58:11;;;;;;;4.03;2.30;;;;;;;;;;5093040;28;20490;-73
2022/05/14 08:00:38;;;;;;;3.63;2.67;;;;;;;;;;5093045;28;20481;-73
2022/05/14 08:03:06;;;;;;;4.00;2.17;;;;;;;;;;5092887;28;20940;-73
2022/05/14 08:05:33;;;;;;;3.23;1.93;;;;;;;;;;5092786;28;20439;-73
2022/05/14 08:08:00;;;;;;;3.43;2.07;;;;;;;;;;5092991;28;20447;-73
2022/05/14 08:10:27;;;;;;;4.20;2.70;;;;;;;;;;5092733;28;20466;-73
2022/05/14 08:12:57;;;;;;;3.47;1.90;;;;;;;;;;5092683;28;20447;-73
2022/05/14 08:15:25;;;;;;;3.00;2.20;;;;;;;;;;5095522;28;20948;-73
2022/05/14 08:17:52;;;;;;;3.87;2.40;;;;;;;;;;5096579;28;20490;-72
2022/05/14 08:20:20;;;;;;;3.50;1.83;;;;;;;;;;5096162;28;20474;-73
2022/05/14 08:25:32;;;;;;;4.97;2.07;;;;;;;;;;5096613;28;20414;-73
2022/05/14 08:28:01;;;;;;;12.23;2.87;;;;;;;;;;5096596;28;20443;-73
2022/05/14 08:30:30;;;;;;;1.90;1.70;;;;;;;;;;5096306;28;20474;-73
2022/05/14 08:32:57;;;;;;;2.43;1.87;;;;;;;;;;5096577;28;20446;-73
2022/05/14 08:35:24;;;;;;;3.30;1.90;;;;;;;;;;5096251;28;20533;-73
2022/05/14 08:37:52;;;;;;;4.23;1.50;;;;;;;;;;5096183;28;20877;-73
2022/05/14 08:40:21;;;;;;;3.30;1.67;;;;;;;;;;5096134;28;20817;-73
2022/05/14 08:42:51;;;;;;;2.97;2.27;;;;;;;;;;5096134;28;20813;-73
2022/05/14 08:45:20;;;;;;;2.67;1.90;;;;;;;;;;5096122;28;20450;-73
2022/05/14 08:47:55;;;;;;;5.87;2.83;;;;;;;;;;5095673;28;20455;-73
2022/05/14 08:50:24;;;;;;;3.00;2.10;;;;;;;;;;5095633;28;20478;-73
2022/05/14 08:52:51;;;;;;;2.93;2.10;;;;;;;;;;5095965;28;20451;-73
2022/05/14 08:55:19;;;;;;;2.70;2.27;;;;;;;;;;5095952;28;20799;-73
2022/05/14 08:57:50;;;;;;;3.33;2.30;;;;;;;;;;5095699;28;20998;-73
2022/05/14 09:00:18;;;;;;;8.33;2.10;;;;;;;;;;5095412;28;20477;-73
2022/05/14 09:02:47;;;;;;;2.27;1.80;;;;;;;;;;5095457;28;20464;-73
2022/05/14 09:05:16;;;;;;;3.10;2.70;;;;;;;;;;5095745;28;20454;-73
2022/05/14 09:07:44;;;;;;;2.20;2.00;;;;;;;;;;5095823;28;20450;-73
2022/05/14 09:10:21;;;;;;;3.23;1.60;;;;;;;;;;5095523;28;20466;-73
2022/05/14 09:12:51;;;;;;;4.60;2.13;;;;;;;;;;5095540;28;20788;-73
2022/05/14 09:15:18;;;;;;;3.40;1.80;;;;;;;;;;5095554;28;20450;-73
2022/05/14 09:17:47;;;;;;;6.03;2.13;;;;;;;;;;5095180;28;20459;-73
2022/05/14 09:20:23;;;;;;;3.80;2.03;;;;;;;;;;5095321;28;20473;-73
2022/05/14 09:22:55;;;;;;;6.07;1.93;;;;;;;;;;5095004;28;20441;-73
2022/05/14 09:25:24;;;;;;;3.63;1.80;;;;;;;;;;5094648;28;20535;-73
2022/05/14 09:27:54;;;;;;;3.43;2.03;;;;;;;;;;5094634;28;20538;-73
2022/05/14 09:30:29;;;;;;;2.90;1.70;;;;;;;;;;5095159;28;20477;-73
2022/05/14 09:32:59;;;;;;;8.37;2.60;;;;;;;;;;5095409;28;20454;-73
2022/05/14 09:35:27;;;;;;;5.60;2.30;;;;;;;;;;5094825;28;20455;-73
2022/05/14 09:37:57;;;;;;;2.00;1.80;;;;;;;;;;5094973;28;20486;-73
2022/05/14 09:40:26;;;;;;;7.40;2.20;;;;;;;;;;5095274;28;20982;-73
2022/05/14 09:42:54;;;;;;;2.60;1.50;;;;;;;;;;5094921;28;20466;-73
2022/05/14 09:45:39;;;;;;;6.07;1.60;;;;;;;;;;5094612;28;20450;-73
2022/05/14 09:48:11;;;;;;;5.03;2.23;;;;;;;;;;5094922;28;20422;-73
2022/05/14 09:50:41;;;;;;;3.60;1.63;;;;;;;;;;5094783;28;20469;-73
2022/05/14 09:53:08;;;;;;;3.53;1.97;;;;;;;;;;5094454;28;20500;-73
2022/05/14 09:55:49;;;;;;;4.33;1.97;;;;;;;;;;5094767;28;20451;-73
2022/05/14 09:58:19;;;;;;;7.07;1.80;;;;;;;;;;5094659;28;20478;-73
2022/05/14 10:00:54;;;;;;;4.63;2.57;;;;;;;;;;5094549;28;20466;-73
2022/05/14 10:03:28;;;;;;;3.90;2.00;;;;;;;;;;5094666;28;20434;-73
2022/05/14 10:06:01;;;;;;;4.80;1.80;;;;;;;;;;5094247;28;20431;-73
2022/05/14 10:08:37;;;;;;;4.87;1.90;;;;;;;;;;5094196;28;20431;-73
2022/05/14 10:11:08;;;;;;;5.53;2.27;;;;;;;;;;5094389;28;20470;-73
2022/05/14 10:13:38;;;;;;;4.03;2.33;;;;;;;;;;5094452;28;20561;-73
2022/05/14 10:16:06;;;;;;;4.73;2.00;;;;;;;;;;5094383;28;20838;-73
2022/05/14 10:18:44;;;;;;;3.20;2.47;;;;;;;;;;5094229;28;20483;-73
2022/05/14 10:21:15;;;;;;;7.00;1.90;;;;;;;;;;5094233;28;20470;-73
2022/05/14 10:26:52;;;;;;;4.13;2.33;;;;;;;;;;5093793;28;20941;-73
2022/05/14 10:29:32;;;;;;;5.53;2.20;;;;;;;;;;5094081;28;20465;-73
2022/05/14 10:32:01;;;;;;;2.47;2.07;;;;;;;;;;5094056;28;20434;-73
2022/05/14 10:34:36;;;;;;;4.57;1.90;;;;;;;;;;5094029;28;20830;-73
2022/05/14 10:37:05;;;;;;;3.03;1.80;;;;;;;;;;5093874;28;20891;-73
2022/05/14 10:39:36;;;;;;;5.57;2.03;;;;;;;;;;5093806;28;20490;-73
2022/05/14 10:42:09;;;;;;;3.80;2.23;;;;;;;;;;5093674;28;20451;-73
2022/05/14 10:44:40;;;;;;;5.90;2.50;;;;;;;;;;5093914;28;20916;-73
2022/05/14 10:47:09;;;;;;;5.90;1.93;;;;;;;;;;5093885;28;20445;-73
2022/05/14 10:49:39;;;;;;;2.80;2.00;;;;;;;;;;5093709;28;20990;-73
2022/05/14 10:52:10;;;;;;;3.80;2.70;;;;;;;;;;5094042;28;20786;-73
2022/05/14 10:54:38;;;;;;;4.70;2.57;;;;;;;;;;5093810;28;20566;-73
2022/05/14 10:57:23;;;;;;;5.37;2.20;;;;;;;;;;5093310;28;20507;-73
2022/05/14 10:59:52;;;;;;;5.13;2.30;;;;;;;;;;5093546;28;20492;-73
2022/05/14 11:02:24;;;;;;;6.20;2.77;;;;;;;;;;5093556;28;20454;-73
2022/05/14 11:04:53;;;;;;;4.13;3.10;;;;;;;;;;5093410;28;20445;-74
2022/05/14 11:07:28;;;;;;;2.93;2.30;;;;;;;;;;5093553;28;20447;-74
2022/05/14 11:09:55;;;;;;;6.93;3.63;;;;;;;;;;5093766;28;20484;-74
2022/05/14 11:12:31;;;;;;;3.97;2.77;;;;;;;;;;5093549;28;20450;-74
2022/05/14 11:14:59;;;;;;;4.33;2.23;;;;;;;;;;5093242;28;20501;-74
2022/05/14 11:17:27;;;;;;;11.17;3.63;;;;;;;;;;5093247;28;20470;-74
2022/05/14 11:20:08;;;;;;;4.77;2.30;;;;;;;;;;5093592;28;20498;-74
2022/05/14 11:22:36;;;;;;;3.87;2.77;;;;;;;;;;5093180;28;20438;-74
2022/05/14 11:25:10;;;;;;;3.20;2.43;;;;;;;;;;5092997;28;20471;-74
2022/05/14 11:27:38;;;;;;;2.80;2.40;;;;;;;;;;5093455;28;20447;-74
2022/05/14 11:30:07;;;;;;;6.50;2.50;;;;;;;;;;5093235;28;20477;-75
2022/05/14 11:32:41;;;;;;;4.13;2.47;;;;;;;;;;5093598;28;20458;-74
2022/05/14 11:35:10;;;;;;;6.90;2.30;;;;;;;;;;5093423;28;20435;-74
2022/05/14 11:37:38;;;;;;;3.90;2.30;;;;;;;;;;5093249;28;20455;-73
2022/05/14 11:40:07;;;;;;;4.70;2.37;;;;;;;;;;5093398;28;20490;-73
2022/05/14 11:42:35;;;;;;;3.23;2.37;;;;;;;;;;5093271;28;20461;-73
2022/05/14 11:45:04;;;;;;;4.20;2.20;;;;;;;;;;5093208;28;20470;-74
2022/05/14 11:47:43;;;;;;;3.60;2.33;;;;;;;;;;5093181;28;20446;-73
2022/05/14 11:50:14;;;;;;;11.30;3.17;;;;;;;;;;5095828;28;20489;-74
2022/05/14 11:52:44;;;;;;;2.97;2.20;;;;;;;;;;5097199;28;20891;-73
2022/05/14 11:55:14;;;;;;;4.67;2.30;;;;;;;;;;5096777;28;20439;-73
2022/05/14 11:57:46;;;;;;;3.40;2.10;;;;;;;;;;5097067;28;20900;-73
2022/05/14 12:00:15;;;;;;;3.70;2.00;;;;;;;;;;5096837;28;20860;-74
2022/05/14 12:02:46;;;;;;;3.23;2.27;;;;;;;;;;5096894;28;20821;-73
2022/05/14 12:05:17;;;;;;;3.80;2.10;;;;;;;;;;5096903;28;20450;-73
2022/05/14 12:07:53;;;;;;;4.80;2.80;;;;;;;;;;5096920;28;20434;-74
2022/05/14 12:10:25;;;;;;;5.70;2.67;;;;;;;;;;5096399;28;20473;-75
2022/05/14 12:12:56;;;;;;;4.00;2.47;;;;;;;;;;5096448;28;20531;-74
2022/05/14 12:15:24;;;;;;;5.23;2.30;;;;;;;;;;5097191;28;20443;-76
2022/05/14 12:17:53;;;;;;;3.40;2.33;;;;;;;;;;5096686;28;20534;-75
2022/05/14 12:20:23;;;;;;;5.17;2.17;;;;;;;;;;5096433;28;20520;-76
2022/05/14 12:22:54;;;;;;;3.83;2.70;;;;;;;;;;5096474;28;20882;-76
2022/05/14 12:25:22;;;;;;;4.00;2.77;;;;;;;;;;5096598;28;20904;-75
2022/05/14 12:27:50;;;;;;;3.53;3.13;;;;;;;;;;5096403;28;20458;-74
2022/05/14 12:33:13;;;;;;;6.00;2.90;;;;;;;;;;5095961;28;20505;-74
2022/05/14 12:35:43;;;;;;;4.93;2.50;;;;;;;;;;5096337;28;20911;-73
2022/05/14 12:38:11;;;;;;;4.77;2.83;;;;;;;;;;5096229;28;20911;-73
2022/05/14 12:40:39;;;;;;;4.63;2.87;;;;;;;;;;5096107;28;20497;-73
2022/05/14 12:43:08;;;;;;;7.80;4.03;;;;;;;;;;5096146;28;20906;-73
2022/05/14 12:45:36;;;;;;;6.00;3.63;;;;;;;;;;5096105;28;20454;-73
2022/05/14 12:48:05;;;;;;;9.00;5.57;;;;;;;;;;5093770;28;20850;-72
2022/05/14 12:50:33;;;;;;;3.20;2.87;;;;;;;;;;5095311;28;20471;-73
2022/05/14 12:53:02;;;;;;;5.53;3.07;;;;;;;;;;5095463;28;20501;-73
2022/05/14 12:55:31;;;;;;;7.40;3.30;;;;;;;;;;5095646;28;20541;-73
2022/05/14 12:57:59;;;;;;;5.20;3.20;;;;;;;;;;5095830;28;20461;-73
2022/05/14 13:00:26;;;;;;;4.20;2.43;;;;;;;;;;5095450;28;20490;-73
2022/05/14 13:02:57;;;;;;;4.30;2.70;;;;;;;;;;5095549;28;20455;-73
2022/05/14 13:05:27;;;;;;;3.17;2.20;;;;;;;;;;5095775;28;20500;-73
2022/05/14 13:07:56;;;;;;;3.13;2.70;;;;;;;;;;5095502;28;20439;-73
2022/05/14 13:10:26;;;;;;;3.80;2.57;;;;;;;;;;5095207;28;20467;-73
2022/05/14 13:12:55;;;;;;;5.10;2.83;;;;;;;;;;5095563;28;20458;-73
2022/05/14 13:15:31;;;;;;;6.90;4.30;;;;;;;;;;5095223;28;20458;-73
2022/05/14 13:17:58;;;;;;;5.37;3.03;;;;;;;;;;5095764;28;20435;-73
2022/05/14 13:20:27;;;;;;;2.80;2.43;;;;;;;;;;5095563;28;20493;-73
2022/05/14 13:23:03;;;;;;;2.73;2.23;;;;;;;;;;5094919;28;20504;-73
2022/05/14 13:25:33;;;;;;;5.23;3.33;;;;;;;;;;5095343;28;20431;-73
2022/05/14 13:28:10;;;;;;;5.60;3.33;;;;;;;;;;5095263;28;20490;-73
2022/05/14 13:30:38;;;;;;;4.90;2.63;;;;;;;;;;5095246;28;20467;-73
2022/05/14 13:33:05;;;;;;;4.20;3.70;;;;;;;;;;5094812;28;20455;-73
2022/05/14 13:38:17;;;;;;;4.10;2.87;;;;;;;;;;5094954;28;20590;-73
2022/05/14 13:40:47;;;;;;;5.77;3.27;;;;;;;;;;5094686;28;20491;-73
2022/05/14 13:43:17;;;;;;;3.03;2.73;;;;;;;;;;5095105;28;20453;-73
2022/05/14 13:45:45;;;;;;;4.10;2.87;;;;;;;;;;5094905;28;20892;-73
2022/05/14 13:48:13;;;;;;;4.73;2.30;;;;;;;;;;5094876;28;20450;-73
2022/05/14 13:50:42;;;;;;;4.63;2.33;;;;;;;;;;5094838;28;20481;-73
2022/05/14 13:53:21;;;;;;;2.97;2.40;;;;;;;;;;5094719;28;20458;-73
2022/05/14 13:55:59;;;;;;;4.67;2.23;;;;;;;;;;5094767;28;20435;-72
2022/05/14 13:58:27;;;;;;;2.90;2.60;;;;;;;;;;5094813;28;20434;-73
2022/05/14 14:00:56;;;;;;;4.07;2.53;;;;;;;;;;5094497;28;21009;-73
2022/05/14 14:03:24;;;;;;;7.47;2.70;;;;;;;;;;5094459;28;20797;-73
2022/05/14 14:05:52;;;;;;;4.07;2.37;;;;;;;;;;5094492;28;20821;-73
2022/05/14 14:08:23;;;;;;;2.67;2.20;;;;;;;;;;5094630;28;20439;-73
2022/05/14 14:10:53;;;;;;;6.30;2.50;;;;;;;;;;5094410;28;20466;-72
2022/05/14 14:13:20;;;;;;;8.70;2.27;;;;;;;;;;5093863;28;20431;-73
2022/05/14 14:15:47;;;;;;;17.27;3.67;;;;;;;;;;5094421;28;20480;-73
2022/05/14 14:18:15;;;;;;;4.10;1.83;;;;;;;;;;5094072;28;20434;-73
2022/05/14 14:20:44;;;;;;;2.40;2.10;;;;;;;;;;5094417;28;20533;-73
2022/05/14 14:23:15;;;;;;;2.90;2.23;;;;;;;;;;5094110;28;20466;-73
2022/05/14 14:25:43;;;;;;;6.20;3.50;;;;;;;;;;5094306;28;20423;-73
2022/05/14 14:28:14;;;;;;;4.63;2.47;;;;;;;;;;5094106;28;20454;-73
2022/05/14 14:30:41;;;;;;;2.93;2.10;;;;;;;;;;5093846;28;20498;-73
2022/05/14 14:33:08;;;;;;;3.83;1.40;;;;;;;;;;5094156;28;20951;-73
2022/05/14 14:35:36;;;;;;;5.57;2.10;;;;;;;;;;5094108;28;20484;-73
2022/05/14 14:38:03;;;;;;;6.07;2.03;;;;;;;;;;5094275;28;20459;-73
2022/05/14 14:40:30;;;;;;;3.07;1.83;;;;;;;;;;5093792;28;20498;-73
2022/05/14 14:42:57;;;;;;;2.80;1.90;;;;;;;;;;5093605;28;20458;-73
2022/05/14 14:45:26;;;;;;;2.30;1.83;;;;;;;;;;5094041;28;20446;-73
2022/05/14 14:47:54;;;;;;;7.70;4.63;;;;;;;;;;5093840;28;20446;-73
2022/05/14 14:50:22;;;;;;;2.20;2.00;;;;;;;;;;5093683;28;20469;-73
2022/05/14 14:52:49;;;;;;;4.63;1.83;;;;;;;;;;5093471;28;20458;-72
2022/05/14 14:55:17;;;;;;;2.93;1.80;;;;;;;;;;5093808;28;20454;-72
2022/05/14 14:57:44;;;;;;;2.30;1.70;;;;;;;;;;5093660;28;20824;-73
2022/05/14 15:00:12;;;;;;;4.13;2.90;;;;;;;;;;5093556;28;20499;-72
2022/05/14 15:02:43;;;;;;;5.13;2.00;;;;;;;;;;5093716;28;20941;-73
2022/05/14 15:05:12;;;;;;;2.73;1.90;;;;;;;;;;5093356;28;20439;-73
2022/05/14 15:07:41;;;;;;;3.27;1.80;;;;;;;;;;5093818;28;20911;-72
2022/05/14 15:10:09;;;;;;;2.77;1.67;;;;;;;;;;5093484;28;20520;-73